ABS weather

Abu Simbel Airport
Abu Simbel, Aswan Governorate, Egypt

Public forecast

Using degrees Celsius for public forecast. Weather courtesy of forecast.io.

Current aviation weather report (METAR) for Abu Simbel Airport

Retrieved 2019/10/19 09:00 UTC (4 minutes ago):

HEBL 190900Z 06007KT CAVOK 34/15 Q1012 NOSIG

Aviation forecast (TAF) for Abu Simbel Airport

Retrieved 2019/10/19 06:15 UTC (3 hours ago):

TAF HEBL 190500Z 1906/2012 03012KT CAVOK